sensor_id;sensor_type;location;lat;lon;timestamp;pressure;altitude;pressure_sealevel;temperature;humidity
34328;BME280;20588;48.840;10.064;2022-12-11T00:01:27;95731.75;;;-0.28;nan
34328;BME280;20588;48.840;10.064;2022-12-11T00:03:53;95730.50;;;-0.32;nan
34328;BME280;20588;48.840;10.064;2022-12-11T00:06:21;95741.41;;;-0.31;nan
34328;BME280;20588;48.840;10.064;2022-12-11T00:08:53;95736.97;;;-0.29;nan
34328;BME280;20588;48.840;10.064;2022-12-11T00:11:20;95751.00;;;-0.27;nan
34328;BME280;20588;48.840;10.064;2022-12-11T00:13:46;95738.53;;;-0.28;nan
34328;BME280;20588;48.840;10.064;2022-12-11T00:16:14;95752.75;;;-0.27;nan
34328;BME280;20588;48.840;10.064;2022-12-11T00:18:40;95752.91;;;-0.29;nan
34328;BME280;20588;48.840;10.064;2022-12-11T00:21:09;95752.75;;;-0.27;nan
34328;BME280;20588;48.840;10.064;2022-12-11T00:23:37;95750.38;;;-0.29;nan
34328;BME280;20588;48.840;10.064;2022-12-11T00:26:08;95750.22;;;-0.27;nan
34328;BME280;20588;48.840;10.064;2022-12-11T00:28:35;95747.09;;;-0.29;nan
34328;BME280;20588;48.840;10.064;2022-12-11T00:31:08;95744.88;;;-0.32;nan
34328;BME280;20588;48.840;10.064;2022-12-11T00:33:34;95748.81;;;-0.30;nan
34328;BME280;20588;48.840;10.064;2022-12-11T00:36:00;95739.34;;;-0.28;nan
34328;BME280;20588;48.840;10.064;2022-12-11T00:38:27;95738.38;;;-0.27;nan
34328;BME280;20588;48.840;10.064;2022-12-11T00:40:58;95736.66;;;-0.26;nan
34328;BME280;20588;48.840;10.064;2022-12-11T00:43:24;95740.41;;;-0.22;nan
34328;BME280;20588;48.840;10.064;2022-12-11T00:45:50;95734.72;;;-0.24;nan
34328;BME280;20588;48.840;10.064;2022-12-11T00:48:16;95738.53;;;-0.20;nan
34328;BME280;20588;48.840;10.064;2022-12-11T00:50:42;95741.81;;;-0.20;nan
34328;BME280;20588;48.840;10.064;2022-12-11T00:53:08;95736.31;;;-0.23;nan
34328;BME280;20588;48.840;10.064;2022-12-11T00:55:39;95742.78;;;-0.21;nan
34328;BME280;20588;48.840;10.064;2022-12-11T00:58:05;95742.16;;;-0.23;nan
34328;BME280;20588;48.840;10.064;2022-12-11T01:00:32;95741.97;;;-0.21;nan
34328;BME280;20588;48.840;10.064;2022-12-11T01:02:58;95746.28;;;-0.22;nan
34328;BME280;20588;48.840;10.064;2022-12-11T01:05:24;95746.88;;;-0.20;nan
34328;BME280;20588;48.840;10.064;2022-12-11T01:07:50;95743.25;;;-0.17;nan
34328;BME280;20588;48.840;10.064;2022-12-11T01:10:16;95749.72;;;-0.15;nan
34328;BME280;20588;48.840;10.064;2022-12-11T01:12:53;95748.41;;;-0.11;nan
34328;BME280;20588;48.840;10.064;2022-12-11T01:15:21;95750.50;;;-0.14;nan
34328;BME280;20588;48.840;10.064;2022-12-11T01:17:49;95751.44;;;-0.15;nan
34328;BME280;20588;48.840;10.064;2022-12-11T01:20:17;95752.25;;;-0.15;nan
34328;BME280;20588;48.840;10.064;2022-12-11T01:22:44;95746.22;;;-0.14;nan
34328;BME280;20588;48.840;10.064;2022-12-11T01:25:10;95761.38;;;-0.14;nan
34328;BME280;20588;48.840;10.064;2022-12-11T01:27:37;95755.72;;;-0.16;nan
34328;BME280;20588;48.840;10.064;2022-12-11T01:30:06;95768.19;;;-0.14;nan
34328;BME280;20588;48.840;10.064;2022-12-11T01:32:33;95761.53;;;-0.15;nan
34328;BME280;20588;48.840;10.064;2022-12-11T01:35:01;95774.50;;;-0.18;nan
34328;BME280;20588;48.840;10.064;2022-12-11T01:37:28;95774.66;;;-0.20;nan
34328;BME280;20588;48.840;10.064;2022-12-11T01:39:54;95774.22;;;-0.23;nan
34328;BME280;20588;48.840;10.064;2022-12-11T01:42:20;95781.97;;;-0.25;nan
34328;BME280;20588;48.840;10.064;2022-12-11T01:47:12;95780.38;;;-0.26;nan
34328;BME280;20588;48.840;10.064;2022-12-11T01:49:39;95777.41;;;-0.29;nan
34328;BME280;20588;48.840;10.064;2022-12-11T01:52:13;95780.25;;;-0.32;nan
34328;BME280;20588;48.840;10.064;2022-12-11T01:54:41;95782.78;;;-0.32;nan
34328;BME280;20588;48.840;10.064;2022-12-11T01:57:10;95782.78;;;-0.32;nan
34328;BME280;20588;48.840;10.064;2022-12-11T01:59:40;95774.25;;;-0.31;nan
34328;BME280;20588;48.840;10.064;2022-12-11T02:02:09;95773.28;;;-0.30;nan
34328;BME280;20588;48.840;10.064;2022-12-11T02:04:38;95772.66;;;-0.32;nan
34328;BME280;20588;48.840;10.064;2022-12-11T02:07:04;95771.06;;;-0.33;nan
34328;BME280;20588;48.840;10.064;2022-12-11T02:09:33;95770.63;;;-0.37;nan
34328;BME280;20588;48.840;10.064;2022-12-11T02:14:45;95773.47;;;-0.40;nan
34328;BME280;20588;48.840;10.064;2022-12-11T02:17:33;95769.34;;;-0.41;nan
34328;BME280;20588;48.840;10.064;2022-12-11T02:26:20;95769.19;;;-0.39;nan
34328;BME280;20588;48.840;10.064;2022-12-11T02:28:57;95774.88;;;-0.37;nan
34328;BME280;20588;48.840;10.064;2022-12-11T02:34:03;95776.63;;;-0.38;nan
34328;BME280;20588;48.840;10.064;2022-12-11T02:36:39;95775.84;;;-0.38;nan
34328;BME280;20588;48.840;10.064;2022-12-11T02:39:09;95780.25;;;-0.40;nan
34328;BME280;20588;48.840;10.064;2022-12-11T02:41:39;95781.06;;;-0.40;nan
34328;BME280;20588;48.840;10.064;2022-12-11T02:44:09;95783.09;;;-0.35;nan
34328;BME280;20588;48.840;10.064;2022-12-11T02:46:36;95774.88;;;-0.37;nan
34328;BME280;20588;48.840;10.064;2022-12-11T02:49:05;95772.03;;;-0.34;nan
34328;BME280;20588;48.840;10.064;2022-12-11T02:51:37;95768.72;;;-0.35;nan
34328;BME280;20588;48.840;10.064;2022-12-11T02:54:08;95779.63;;;-0.34;nan
34328;BME280;20588;48.840;10.064;2022-12-11T02:56:46;95776.00;;;-0.40;nan
34328;BME280;20588;48.840;10.064;2022-12-11T02:59:18;95781.81;;;-0.39;nan
34328;BME280;20588;48.840;10.064;2022-12-11T03:01:45;95785.47;;;-0.42;nan
34328;BME280;20588;48.840;10.064;2022-12-11T03:04:12;95779.78;;;-0.44;nan
34328;BME280;20588;48.840;10.064;2022-12-11T03:06:48;95788.78;;;-0.41;nan
34328;BME280;20588;48.840;10.064;2022-12-11T03:09:16;95781.06;;;-0.48;nan
34328;BME280;20588;48.840;10.064;2022-12-11T03:11:42;95777.75;;;-0.48;nan
34328;BME280;20588;48.840;10.064;2022-12-11T03:14:08;95782.78;;;-0.48;nan
34328;BME280;20588;48.840;10.064;2022-12-11T03:16:37;95777.91;;;-0.50;nan
34328;BME280;20588;48.840;10.064;2022-12-11T03:19:12;95775.53;;;-0.51;nan
34328;BME280;20588;48.840;10.064;2022-12-11T03:22:04;95773.50;;;-0.48;nan
34328;BME280;20588;48.840;10.064;2022-12-11T03:24:58;95777.13;;;-0.50;nan
34328;BME280;20588;48.840;10.064;2022-12-11T03:27:50;95779.97;;;-0.53;nan
34328;BME280;20588;48.840;10.064;2022-12-11T03:30:21;95779.50;;;-0.57;nan
34328;BME280;20588;48.840;10.064;2022-12-11T03:33:33;95784.38;;;-0.55;nan
34328;BME280;20588;48.840;10.064;2022-12-11T03:36:05;95781.38;;;-0.59;nan
34328;BME280;20588;48.840;10.064;2022-12-11T03:38:50;95780.47;;;-0.58;nan
34328;BME280;20588;48.840;10.064;2022-12-11T03:41:20;95775.56;;;-0.59;nan
34328;BME280;20588;48.840;10.064;2022-12-11T03:43:48;95774.28;;;-0.63;nan
34328;BME280;20588;48.840;10.064;2022-12-11T03:46:19;95765.00;;;-0.63;nan
34328;BME280;20588;48.840;10.064;2022-12-11T03:48:47;95780.31;;;-0.64;nan
34328;BME280;20588;48.840;10.064;2022-12-11T03:51:15;95775.56;;;-0.59;nan
34328;BME280;20588;48.840;10.064;2022-12-11T03:53:42;95778.25;;;-0.61;nan
34328;BME280;20588;48.840;10.064;2022-12-11T03:56:11;95785.34;;;-0.64;nan
34328;BME280;20588;48.840;10.064;2022-12-11T03:58:39;95778.91;;;-0.67;nan
34328;BME280;20588;48.840;10.064;2022-12-11T04:01:09;95782.50;;;-0.69;nan
34328;BME280;20588;48.840;10.064;2022-12-11T04:03:36;95778.88;;;-0.75;nan
34328;BME280;20588;48.840;10.064;2022-12-11T04:06:02;95768.31;;;-0.78;nan
34328;BME280;20588;48.840;10.064;2022-12-11T04:08:28;95766.41;;;-0.84;nan
34328;BME280;20588;48.840;10.064;2022-12-11T04:10:55;95769.25;;;-0.87;nan
34328;BME280;20588;48.840;10.064;2022-12-11T04:13:40;95768.94;;;-0.92;nan
34328;BME280;20588;48.840;10.064;2022-12-11T04:16:07;95769.56;;;-0.98;nan
34328;BME280;20588;48.840;10.064;2022-12-11T04:18:33;95779.81;;;-1.00;nan
34328;BME280;20588;48.840;10.064;2022-12-11T04:21:17;95769.88;;;-1.01;nan
34328;BME280;20588;48.840;10.064;2022-12-11T04:24:02;95763.13;;;-1.01;nan
34328;BME280;20588;48.840;10.064;2022-12-11T04:26:41;95753.50;;;-1.05;nan
34328;BME280;20588;48.840;10.064;2022-12-11T04:29:07;95748.91;;;-1.10;nan
34328;BME280;20588;48.840;10.064;2022-12-11T04:31:33;95756.66;;;-1.11;nan
34328;BME280;20588;48.840;10.064;2022-12-11T04:33:59;95752.25;;;-1.09;nan
34328;BME280;20588;48.840;10.064;2022-12-11T04:36:25;95754.91;;;-1.11;nan
34328;BME280;20588;48.840;10.064;2022-12-11T04:38:51;95760.13;;;-1.12;nan
34328;BME280;20588;48.840;10.064;2022-12-11T04:41:17;95754.59;;;-1.08;nan
34328;BME280;20588;48.840;10.064;2022-12-11T04:43:43;95760.13;;;-1.12;nan
34328;BME280;20588;48.840;10.064;2022-12-11T04:46:19;95757.59;;;-1.12;nan
34328;BME280;20588;48.840;10.064;2022-12-11T04:48:46;95762.19;;;-1.08;nan
34328;BME280;20588;48.840;10.064;2022-12-11T04:51:12;95759.63;;;-1.16;nan
34328;BME280;20588;48.840;10.064;2022-12-11T04:53:39;95759.47;;;-1.14;nan
34328;BME280;20588;48.840;10.064;2022-12-11T04:56:07;95760.91;;;-1.20;nan
34328;BME280;20588;48.840;10.064;2022-12-11T04:58:33;95765.00;;;-1.19;nan
34328;BME280;20588;48.840;10.064;2022-12-11T05:01:10;95763.28;;;-1.18;nan
34328;BME280;20588;48.840;10.064;2022-12-11T05:03:37;95760.91;;;-1.20;nan
34328;BME280;20588;48.840;10.064;2022-12-11T05:06:03;95759.16;;;-1.19;nan
34328;BME280;20588;48.840;10.064;2022-12-11T05:08:29;95769.09;;;-1.18;nan
34328;BME280;20588;48.840;10.064;2022-12-11T05:11:03;95765.00;;;-1.19;nan
34328;BME280;20588;48.840;10.064;2022-12-11T05:13:31;95768.94;;;-1.16;nan
34328;BME280;20588;48.840;10.064;2022-12-11T05:15:57;95761.69;;;-1.11;nan
34328;BME280;20588;48.840;10.064;2022-12-11T05:18:24;95763.75;;;-1.07;nan
34328;BME280;20588;48.840;10.064;2022-12-11T05:21:02;95760.09;;;-1.04;nan
34328;BME280;20588;48.840;10.064;2022-12-11T05:23:29;95770.34;;;-1.06;nan
34328;BME280;20588;48.840;10.064;2022-12-11T05:25:57;95760.91;;;-1.04;nan
34328;BME280;20588;48.840;10.064;2022-12-11T05:28:25;95765.00;;;-1.03;nan
34328;BME280;20588;48.840;10.064;2022-12-11T05:30:59;95764.53;;;-0.98;nan
34328;BME280;20588;48.840;10.064;2022-12-11T05:33:25;95767.19;;;-1.00;nan
34328;BME280;20588;48.840;10.064;2022-12-11T05:35:52;95766.13;;;-0.97;nan
34328;BME280;20588;48.840;10.064;2022-12-11T05:38:18;95768.50;;;-0.96;nan
34328;BME280;20588;48.840;10.064;2022-12-11T05:40:44;95761.06;;;-0.97;nan
34328;BME280;20588;48.840;10.064;2022-12-11T05:43:10;95759.47;;;-0.98;nan
34328;BME280;20588;48.840;10.064;2022-12-11T05:45:36;95752.53;;;-0.96;nan
34328;BME280;20588;48.840;10.064;2022-12-11T05:48:03;95756.78;;;-0.97;nan
34328;BME280;20588;48.840;10.064;2022-12-11T05:50:29;95753.34;;;-0.96;nan
34328;BME280;20588;48.840;10.064;2022-12-11T05:52:55;95746.09;;;-0.99;nan
34328;BME280;20588;48.840;10.064;2022-12-11T05:55:21;95746.22;;;-0.92;nan
34328;BME280;20588;48.840;10.064;2022-12-11T05:57:47;95746.06;;;-0.91;nan
34328;BME280;20588;48.840;10.064;2022-12-11T06:00:13;95730.47;;;-0.94;nan
34328;BME280;20588;48.840;10.064;2022-12-11T06:02:39;95735.69;;;-0.96;nan
34328;BME280;20588;48.840;10.064;2022-12-11T06:05:06;95734.56;;;-0.93;nan
34328;BME280;20588;48.840;10.064;2022-12-11T06:07:32;95734.06;;;-0.97;nan
34328;BME280;20588;48.840;10.064;2022-12-11T06:09:58;95743.41;;;-0.97;nan
34328;BME280;20588;48.840;10.064;2022-12-11T06:12:24;95735.03;;;-0.98;nan
34328;BME280;20588;48.840;10.064;2022-12-11T06:14:50;95737.72;;;-0.99;nan
34328;BME280;20588;48.840;10.064;2022-12-11T06:17:16;95735.03;;;-0.98;nan
34328;BME280;20588;48.840;10.064;2022-12-11T06:19:42;95735.19;;;-0.99;nan
34328;BME280;20588;48.840;10.064;2022-12-11T06:22:08;95730.94;;;-0.99;nan
34328;BME280;20588;48.840;10.064;2022-12-11T06:24:34;95741.19;;;-1.00;nan
34328;BME280;20588;48.840;10.064;2022-12-11T06:27:00;95736.16;;;-1.00;nan
34328;BME280;20588;48.840;10.064;2022-12-11T06:29:26;95731.88;;;-1.00;nan
34328;BME280;20588;48.840;10.064;2022-12-11T06:31:52;95723.38;;;-0.99;nan
34328;BME280;20588;48.840;10.064;2022-12-11T06:34:18;95720.22;;;-1.01;nan
34328;BME280;20588;48.840;10.064;2022-12-11T06:36:44;95711.06;;;-1.02;nan
34328;BME280;20588;48.840;10.064;2022-12-11T06:39:10;95707.75;;;-1.02;nan
34328;BME280;20588;48.840;10.064;2022-12-11T06:41:37;95709.63;;;-1.04;nan
34328;BME280;20588;48.840;10.064;2022-12-11T06:44:03;95712.78;;;-1.02;nan
34328;BME280;20588;48.840;10.064;2022-12-11T06:46:29;95715.97;;;-1.00;nan
34328;BME280;20588;48.840;10.064;2022-12-11T06:48:55;95723.81;;;-0.95;nan
34328;BME280;20588;48.840;10.064;2022-12-11T06:51:22;95724.78;;;-0.96;nan
34328;BME280;20588;48.840;10.064;2022-12-11T06:53:53;95723.81;;;-0.95;nan
34328;BME280;20588;48.840;10.064;2022-12-11T06:56:20;95725.09;;;-0.91;nan
34328;BME280;20588;48.840;10.064;2022-12-11T06:58:46;95715.44;;;-0.88;nan
34328;BME280;20588;48.840;10.064;2022-12-11T07:03:43;95732.66;;;-0.91;nan
34328;BME280;20588;48.840;10.064;2022-12-11T07:06:10;95739.28;;;-0.90;nan
34328;BME280;20588;48.840;10.064;2022-12-11T07:08:36;95733.28;;;-0.89;nan
34328;BME280;20588;48.840;10.064;2022-12-11T07:11:11;95736.59;;;-0.89;nan
34328;BME280;20588;48.840;10.064;2022-12-11T07:13:37;95742.75;;;-0.83;nan
34328;BME280;20588;48.840;10.064;2022-12-11T07:16:04;95734.56;;;-0.85;nan
34328;BME280;20588;48.840;10.064;2022-12-11T07:18:38;95737.53;;;-0.82;nan
34328;BME280;20588;48.840;10.064;2022-12-11T07:21:05;95738.97;;;-0.79;nan
34328;BME280;20588;48.840;10.064;2022-12-11T07:23:32;95735.97;;;-0.75;nan
34328;BME280;20588;48.840;10.064;2022-12-11T07:26:01;95738.66;;;-0.68;nan
34328;BME280;20588;48.840;10.064;2022-12-11T07:28:28;95746.53;;;-0.71;nan
34328;BME280;20588;48.840;10.064;2022-12-11T07:30:54;95741.78;;;-0.74;nan
34328;BME280;20588;48.840;10.064;2022-12-11T07:33:20;95745.91;;;-0.73;nan
34328;BME280;20588;48.840;10.064;2022-12-11T07:35:46;95744.63;;;-0.69;nan
34328;BME280;20588;48.840;10.064;2022-12-11T07:38:12;95746.06;;;-0.67;nan
34328;BME280;20588;48.840;10.064;2022-12-11T07:40:38;95742.75;;;-0.59;nan
34328;BME280;20588;48.840;10.064;2022-12-11T07:43:04;95741.28;;;-0.54;nan
34328;BME280;20588;48.840;10.064;2022-12-11T07:45:30;95743.97;;;-0.55;nan
34328;BME280;20588;48.840;10.064;2022-12-11T07:47:56;95743.34;;;-0.49;nan
34328;BME280;20588;48.840;10.064;2022-12-11T07:50:22;95746.97;;;-0.52;nan
34328;BME280;20588;48.840;10.064;2022-12-11T07:52:48;95742.06;;;-0.45;nan
34328;BME280;20588;48.840;10.064;2022-12-11T07:55:15;95735.91;;;-0.43;nan
34328;BME280;20588;48.840;10.064;2022-12-11T07:57:41;95741.88;;;-0.36;nan
34328;BME280;20588;48.840;10.064;2022-12-11T08:00:07;95741.88;;;-0.36;nan
34328;BME280;20588;48.840;10.064;2022-12-11T08:02:33;95745.03;;;-0.34;nan
34328;BME280;20588;48.840;10.064;2022-12-11T08:04:59;95743.00;;;-0.38;nan
34328;BME280;20588;48.840;10.064;2022-12-11T08:07:25;95744.56;;;-0.37;nan
34328;BME280;20588;48.840;10.064;2022-12-11T08:09:51;95740.75;;;-0.33;nan
34328;BME280;20588;48.840;10.064;2022-12-11T08:12:17;95737.91;;;-0.30;nan
34328;BME280;20588;48.840;10.064;2022-12-11T08:14:43;95740.28;;;-0.29;nan
34328;BME280;20588;48.840;10.064;2022-12-11T08:17:09;95735.53;;;-0.24;nan
34328;BME280;20588;48.840;10.064;2022-12-11T08:19:36;95738.69;;;-0.22;nan
34328;BME280;20588;48.840;10.064;2022-12-11T08:22:02;95740.84;;;-0.11;nan
34328;BME280;20588;48.840;10.064;2022-12-11T08:24:28;95744.78;;;0.00;nan
34328;BME280;20588;48.840;10.064;2022-12-11T08:26:54;95746.00;;;0.12;nan
34328;BME280;20588;48.840;10.064;2022-12-11T08:29:20;95742.97;;;0.17;nan
34328;BME280;20588;48.840;10.064;2022-12-11T08:31:47;95744.50;;;0.26;nan
34328;BME280;20588;48.840;10.064;2022-12-11T08:34:13;95740.19;;;0.34;nan
34328;BME280;20588;48.840;10.064;2022-12-11T08:36:39;95746.03;;;0.35;nan
34328;BME280;20588;48.840;10.064;2022-12-11T08:39:05;95732.25;;;0.37;nan
34328;BME280;20588;48.840;10.064;2022-12-11T08:41:31;95734.66;;;0.31;nan
34328;BME280;20588;48.840;10.064;2022-12-11T08:43:58;95737.97;;;0.31;nan
34328;BME280;20588;48.840;10.064;2022-12-11T08:46:29;95738.94;;;0.30;nan
34328;BME280;20588;48.840;10.064;2022-12-11T08:48:55;95738.63;;;0.33;nan
34328;BME280;20588;48.840;10.064;2022-12-11T08:51:24;95740.69;;;0.30;nan
34328;BME280;20588;48.840;10.064;2022-12-11T08:53:53;95737.50;;;0.28;nan
34328;BME280;20588;48.840;10.064;2022-12-11T08:56:20;95741.16;;;0.25;nan
34328;BME280;20588;48.840;10.064;2022-12-11T08:58:48;95741.47;;;0.30;nan
34328;BME280;20588;48.840;10.064;2022-12-11T09:01:18;95745.25;;;0.34;nan
34328;BME280;20588;48.840;10.064;2022-12-11T09:03:47;95745.03;;;0.44;nan
34328;BME280;20588;48.840;10.064;2022-12-11T09:06:15;95746.72;;;0.51;nan
34328;BME280;20588;48.840;10.064;2022-12-11T09:08:43;95741.66;;;0.51;nan
34328;BME280;20588;48.840;10.064;2022-12-11T09:11:13;95739.75;;;0.53;nan
34328;BME280;20588;48.840;10.064;2022-12-11T09:13:40;95740.13;;;0.42;nan
34328;BME280;20588;48.840;10.064;2022-12-11T09:16:10;95738.81;;;0.54;nan
34328;BME280;20588;48.840;10.064;2022-12-11T09:18:37;95742.22;;;0.61;nan
34328;BME280;20588;48.840;10.064;2022-12-11T09:21:07;95743.53;;;0.80;nan
34328;BME280;20588;48.840;10.064;2022-12-11T09:23:33;95744.31;;;1.03;nan
34328;BME280;20588;48.840;10.064;2022-12-11T09:26:02;95740.19;;;1.02;nan
34328;BME280;20588;48.840;10.064;2022-12-11T09:28:28;95741.63;;;1.04;nan
34328;BME280;20588;48.840;10.064;2022-12-11T09:30:55;95738.63;;;1.01;nan
34328;BME280;20588;48.840;10.064;2022-12-11T09:33:22;95738.44;;;1.02;nan
34328;BME280;20588;48.840;10.064;2022-12-11T09:35:57;95736.88;;;1.01;nan
34328;BME280;20588;48.840;10.064;2022-12-11T09:38:24;95737.81;;;1.00;nan
34328;BME280;20588;48.840;10.064;2022-12-11T09:40:50;95727.94;;;1.13;nan
34328;BME280;20588;48.840;10.064;2022-12-11T09:43:41;95732.03;;;1.29;nan
34328;BME280;20588;48.840;10.064;2022-12-11T09:46:13;95733.00;;;1.28;nan
34328;BME280;20588;48.840;10.064;2022-12-11T09:48:42;95728.97;;;1.19;nan
34328;BME280;20588;48.840;10.064;2022-12-11T09:51:31;95726.69;;;1.09;nan
34328;BME280;20588;48.840;10.064;2022-12-11T09:54:00;95732.41;;;1.03;nan
34328;BME280;20588;48.840;10.064;2022-12-11T09:56:33;95730.75;;;0.96;nan
34328;BME280;20588;48.840;10.064;2022-12-11T09:59:27;95730.91;;;0.94;nan
34328;BME280;20588;48.840;10.064;2022-12-11T10:02:16;95724.69;;;0.82;nan
34328;BME280;20588;48.840;10.064;2022-12-11T10:10:41;95713.22;;;0.72;nan
34328;BME280;20588;48.840;10.064;2022-12-11T10:16:31;95717.47;;;0.71;nan
34328;BME280;20588;48.840;10.064;2022-12-11T10:18:49;95708.44;;;0.77;nan
34328;BME280;20588;48.840;10.064;2022-12-11T10:21:17;95714.47;;;0.76;nan
34328;BME280;20588;48.840;10.064;2022-12-11T10:23:57;95715.63;;;0.88;nan
34328;BME280;20588;48.840;10.064;2022-12-11T10:26:27;95715.00;;;0.86;nan
34328;BME280;20588;48.840;10.064;2022-12-11T10:28:57;95710.16;;;0.76;nan
34328;BME280;20588;48.840;10.064;2022-12-11T10:31:33;95702.19;;;0.65;nan
34328;BME280;20588;48.840;10.064;2022-12-11T10:34:19;95709.16;;;0.63;nan
34328;BME280;20588;48.840;10.064;2022-12-11T10:36:48;95701.75;;;0.61;nan
34328;BME280;20588;48.840;10.064;2022-12-11T10:39:21;95700.94;;;0.61;nan
34328;BME280;20588;48.840;10.064;2022-12-11T10:41:49;95702.97;;;0.65;nan
34328;BME280;20588;48.840;10.064;2022-12-11T10:44:26;95694.66;;;0.79;nan
34328;BME280;20588;48.840;10.064;2022-12-11T10:47:09;95689.00;;;0.92;nan
34328;BME280;20588;48.840;10.064;2022-12-11T10:49:37;95692.19;;;1.08;nan
34328;BME280;20588;48.840;10.064;2022-12-11T10:52:21;95686.88;;;1.32;nan
34328;BME280;20588;48.840;10.064;2022-12-11T10:54:58;95691.53;;;1.43;nan
34328;BME280;20588;48.840;10.064;2022-12-11T10:57:30;95685.41;;;1.52;nan
34328;BME280;20588;48.840;10.064;2022-12-11T10:59:57;95680.63;;;1.57;nan
34328;BME280;20588;48.840;10.064;2022-12-11T11:02:30;95683.41;;;1.62;nan
34328;BME280;20588;48.840;10.064;2022-12-11T11:04:58;95682.81;;;1.60;nan
34328;BME280;20588;48.840;10.064;2022-12-11T11:07:27;95675.34;;;1.73;nan
34328;BME280;20588;48.840;10.064;2022-12-11T11:10:16;95672.81;;;1.73;nan
34328;BME280;20588;48.840;10.064;2022-12-11T11:12:48;95665.56;;;1.70;nan
34328;BME280;20588;48.840;10.064;2022-12-11T11:15:27;95665.56;;;1.70;nan
34328;BME280;20588;48.840;10.064;2022-12-11T11:18:03;95669.50;;;1.73;nan
34328;BME280;20588;48.840;10.064;2022-12-11T11:20:34;95655.97;;;1.66;nan
34328;BME280;20588;48.840;10.064;2022-12-11T11:23:02;95656.56;;;1.68;nan
34328;BME280;20588;48.840;10.064;2022-12-11T11:25:32;95658.06;;;1.62;nan
34328;BME280;20588;48.840;10.064;2022-12-11T11:28:03;95653.94;;;1.61;nan
34328;BME280;20588;48.840;10.064;2022-12-11T11:33:14;95648.00;;;1.69;nan
34328;BME280;20588;48.840;10.064;2022-12-11T11:38:46;95643.19;;;1.74;nan
34328;BME280;20588;48.840;10.064;2022-12-11T11:41:27;95644.94;;;1.73;nan
34328;BME280;20588;48.840;10.064;2022-12-11T11:44:05;95648.44;;;1.72;nan
34328;BME280;20588;48.840;10.064;2022-12-11T11:46:38;95639.00;;;1.66;nan
34328;BME280;20588;48.840;10.064;2022-12-11T11:52:01;95630.84;;;1.85;nan
34328;BME280;20588;48.840;10.064;2022-12-11T11:57:22;95626.63;;;2.14;nan
34328;BME280;20588;48.840;10.064;2022-12-11T11:59:53;95627.69;;;2.19;nan
34328;BME280;20588;48.840;10.064;2022-12-11T12:02:20;95622.44;;;2.21;nan
34328;BME280;20588;48.840;10.064;2022-12-11T12:04:47;95621.81;;;2.19;nan
34328;BME280;20588;48.840;10.064;2022-12-11T12:07:50;95625.16;;;2.19;nan
34328;BME280;20588;48.840;10.064;2022-12-11T12:10:44;95622.38;;;2.14;nan
34328;BME280;20588;48.840;10.064;2022-12-11T12:15:56;95614.56;;;1.95;nan
34328;BME280;20588;48.840;10.064;2022-12-11T12:18:56;95611.94;;;1.88;nan
34328;BME280;20588;48.840;10.064;2022-12-11T12:21:30;95617.81;;;1.88;nan
34328;BME280;20588;48.840;10.064;2022-12-11T12:26:39;95610.81;;;1.76;nan
34328;BME280;20588;48.840;10.064;2022-12-11T12:29:25;95616.16;;;1.81;nan
34328;BME280;20588;48.840;10.064;2022-12-11T12:34:41;95612.84;;;2.02;nan
34328;BME280;20588;48.840;10.064;2022-12-11T12:37:46;95612.19;;;1.93;nan
34328;BME280;20588;48.840;10.064;2022-12-11T12:40:28;95617.19;;;1.86;nan
34328;BME280;20588;48.840;10.064;2022-12-11T12:45:53;95617.84;;;1.59;nan
34328;BME280;20588;48.840;10.064;2022-12-11T12:48:24;95619.00;;;1.57;nan
34328;BME280;20588;48.840;10.064;2022-12-11T12:50:51;95613.66;;;1.52;nan
34328;BME280;20588;48.840;10.064;2022-12-11T12:53:20;95618.31;;;1.48;nan
34328;BME280;20588;48.840;10.064;2022-12-11T12:55:49;95610.00;;;1.54;nan
34328;BME280;20588;48.840;10.064;2022-12-11T13:00:53;95604.84;;;1.48;nan
34328;BME280;20588;48.840;10.064;2022-12-11T13:03:25;95604.50;;;1.51;nan
34328;BME280;20588;48.840;10.064;2022-12-11T13:06:13;95603.00;;;1.56;nan
34328;BME280;20588;48.840;10.064;2022-12-11T13:08:57;95598.09;;;1.69;nan
34328;BME280;20588;48.840;10.064;2022-12-11T13:11:35;95606.91;;;1.73;nan
34328;BME280;20588;48.840;10.064;2022-12-11T13:14:29;95606.81;;;1.81;nan
34328;BME280;20588;48.840;10.064;2022-12-11T13:19:44;95609.22;;;1.89;nan
34328;BME280;20588;48.840;10.064;2022-12-11T13:24:49;95602.59;;;1.88;nan
34328;BME280;20588;48.840;10.064;2022-12-11T13:32:33;95601.03;;;1.88;nan
34328;BME280;20588;48.840;10.064;2022-12-11T13:35:04;95595.88;;;1.81;nan
34328;BME280;20588;48.840;10.064;2022-12-11T13:37:37;95599.13;;;1.75;nan
34328;BME280;20588;48.840;10.064;2022-12-11T13:40:14;95600.38;;;1.64;nan
34328;BME280;20588;48.840;10.064;2022-12-11T13:42:53;95612.78;;;1.59;nan
34328;BME280;20588;48.840;10.064;2022-12-11T13:45:33;95610.59;;;1.56;nan
34328;BME280;20588;48.840;10.064;2022-12-11T13:48:01;95613.69;;;1.37;nan
34328;BME280;20588;48.840;10.064;2022-12-11T13:50:34;95621.72;;;1.26;nan
34328;BME280;20588;48.840;10.064;2022-12-11T13:53:02;95621.44;;;1.21;nan
34328;BME280;20588;48.840;10.064;2022-12-11T13:55:33;95621.22;;;1.16;nan
34328;BME280;20588;48.840;10.064;2022-12-11T13:57:59;95624.34;;;1.18;nan
34328;BME280;20588;48.840;10.064;2022-12-11T14:00:29;95625.81;;;1.13;nan
34328;BME280;20588;48.840;10.064;2022-12-11T14:02:58;95620.47;;;1.08;nan
34328;BME280;20588;48.840;10.064;2022-12-11T14:05:26;95619.78;;;1.14;nan
34328;BME280;20588;48.840;10.064;2022-12-11T14:07:55;95620.25;;;1.17;nan
34328;BME280;20588;48.840;10.064;2022-12-11T14:10:26;95617.25;;;1.14;nan
34328;BME280;20588;48.840;10.064;2022-12-11T14:13:00;95618.84;;;1.15;nan
34328;BME280;20588;48.840;10.064;2022-12-11T14:15:29;95618.84;;;1.15;nan
34328;BME280;20588;48.840;10.064;2022-12-11T14:17:57;95613.50;;;1.10;nan
34328;BME280;20588;48.840;10.064;2022-12-11T14:20:32;95616.75;;;1.04;nan
34328;BME280;20588;48.840;10.064;2022-12-11T14:23:26;95621.00;;;1.03;nan
34328;BME280;20588;48.840;10.064;2022-12-11T14:25:57;95621.81;;;1.04;nan
34328;BME280;20588;48.840;10.064;2022-12-11T14:28:26;95619.28;;;1.04;nan
34328;BME280;20588;48.840;10.064;2022-12-11T14:30:55;95629.47;;;0.96;nan
34328;BME280;20588;48.840;10.064;2022-12-11T14:33:26;95628.69;;;0.95;nan